Time;durP1;ratioP1;P1;durP2;ratioP2;P2;SDS_P1;SDS_P2;PMS_P1;PMS_P2;Temp;Humidity;BMP_temperature;BMP_pressure;BME280_temperature;BME280_humidity;BME280_pressure;Samples;Min_cycle;Max_cycle;Signal;HPM_P1;HPM_P2
2022/11/14 00:00:57;;;;;;;4.93;4.53;;;16.70;66.30;;;;;;5053239;28;20179;-74
2022/11/14 00:03:23;;;;;;;3.88;3.58;;;16.70;66.30;;;;;;5053648;28;20186;-76
2022/11/14 00:05:48;;;;;;;5.05;4.55;;;16.70;66.30;;;;;;5052881;28;20268;-76
2022/11/14 00:08:19;;;;;;;4.53;4.13;;;16.70;66.20;;;;;;5053153;28;20262;-76
2022/11/14 00:10:45;;;;;;;4.57;4.18;;;16.60;66.20;;;;;;5053095;28;20223;-74
2022/11/14 00:13:11;;;;;;;5.53;5.03;;;16.60;66.20;;;;;;5053887;28;20197;-74
2022/11/14 00:15:36;;;;;;;4.93;4.43;;;16.60;66.10;;;;;;5052788;28;20222;-75
2022/11/14 00:18:02;;;;;;;5.20;4.70;;;16.60;66.30;;;;;;5053468;28;20175;-73
2022/11/14 00:20:27;;;;;;;4.78;4.38;;;16.60;66.50;;;;;;5053573;28;20175;-74
2022/11/14 00:22:53;;;;;;;4.93;4.53;;;16.60;66.40;;;;;;5052727;28;20179;-74
2022/11/14 00:25:18;;;;;;;4.97;4.47;;;16.60;66.50;;;;;;5053368;28;20167;-74
2022/11/14 00:27:44;;;;;;;5.25;4.30;;;16.60;66.60;;;;;;5052315;28;20221;-74
2022/11/14 00:30:09;;;;;;;4.72;4.32;;;16.50;66.60;;;;;;5053327;28;20191;-74
2022/11/14 00:32:35;;;;;;;4.82;4.43;;;16.50;66.60;;;;;;5052863;28;20179;-76
2022/11/14 00:35:01;;;;;;;4.63;4.22;;;16.50;66.60;;;;;;5052940;28;20218;-75
2022/11/14 00:37:26;;;;;;;4.88;4.47;;;16.50;66.70;;;;;;5053430;28;20177;-75
2022/11/14 00:39:52;;;;;;;5.20;4.70;;;16.50;66.60;;;;;;5053044;28;20175;-75
2022/11/14 00:42:17;;;;;;;5.50;5.00;;;16.50;66.50;;;;;;5052546;28;20163;-74
2022/11/14 00:44:43;;;;;;;5.53;5.03;;;16.50;66.50;;;;;;5052767;28;20644;-72
2022/11/14 00:47:08;;;;;;;5.25;4.75;;;16.50;66.50;;;;;;5052969;28;20163;-73
2022/11/14 00:49:34;;;;;;;5.95;5.30;;;16.50;66.50;;;;;;5052119;28;20175;-74
2022/11/14 00:52:00;;;;;;;6.20;5.60;;;16.50;66.40;;;;;;5051999;28;20175;-74
2022/11/14 00:54:25;;;;;;;5.78;5.28;;;16.50;66.30;;;;;;5052978;28;20256;-75
2022/11/14 00:56:51;;;;;;;5.80;5.30;;;16.40;66.10;;;;;;5051984;28;20175;-74
2022/11/14 00:59:16;;;;;;;6.03;5.53;;;16.40;66.10;;;;;;5052859;28;20164;-75
2022/11/14 01:01:42;;;;;;;6.57;5.97;;;16.40;66.10;;;;;;5052503;28;20638;-76
2022/11/14 01:04:08;;;;;;;6.28;5.70;;;16.40;66.10;;;;;;5052345;28;20183;-75
2022/11/14 01:06:33;;;;;;;7.05;6.35;;;16.40;66.10;;;;;;5052645;28;20172;-75
2022/11/14 01:08:58;;;;;;;6.05;5.55;;;16.40;66.00;;;;;;5052945;28;20254;-75
2022/11/14 01:11:24;;;;;;;6.95;6.35;;;16.40;66.00;;;;;;5051895;28;20698;-74
2022/11/14 01:13:50;;;;;;;6.70;6.05;;;16.40;66.00;;;;;;5052335;28;20175;-75
2022/11/14 01:16:15;;;;;;;6.13;5.53;;;16.30;65.90;;;;;;5054551;28;20259;-75
2022/11/14 01:18:41;;;;;;;7.13;6.43;;;16.40;66.00;;;;;;5058256;28;20664;-74
2022/11/14 01:21:10;;;;;;;7.45;6.68;;;16.30;65.90;;;;;;5059228;28;20178;-73
2022/11/14 01:23:36;;;;;;;6.88;6.18;;;16.30;65.90;;;;;;5058938;28;20214;-73
2022/11/14 01:26:03;;;;;;;6.97;6.32;;;16.30;65.80;;;;;;5058560;28;20178;-74
2022/11/14 01:28:28;;;;;;;7.15;6.47;;;16.30;65.80;;;;;;5059115;28;20178;-75
2022/11/14 01:30:54;;;;;;;7.55;6.85;;;16.30;65.80;;;;;;5058824;28;20182;-75
2022/11/14 01:33:19;;;;;;;7.05;6.35;;;16.30;65.90;;;;;;5059243;28;20185;-75
2022/11/14 01:35:45;;;;;;;7.22;6.55;;;16.30;65.80;;;;;;5059072;28;20213;-74
2022/11/14 01:38:11;;;;;;;7.10;6.38;;;16.30;65.80;;;;;;5058470;28;20198;-75
2022/11/14 01:40:41;;;;;;;7.40;6.80;;;16.30;65.80;;;;;;5058840;28;20641;-74
2022/11/14 01:43:15;;;;;;;7.22;6.53;;;16.30;65.70;;;;;;5059208;28;20258;-74
2022/11/14 01:45:50;;;;;;;7.10;6.40;;;16.30;65.80;;;;;;5058270;28;20250;-73
2022/11/14 01:48:29;;;;;;;7.40;6.70;;;16.30;65.70;;;;;;5059269;28;20190;-74
2022/11/14 01:50:57;;;;;;;7.55;6.72;;;16.30;65.80;;;;;;5057984;28;20608;-74
2022/11/14 01:53:23;;;;;;;7.70;7.00;;;16.30;65.70;;;;;;5040705;28;20198;-74
2022/11/14 01:55:48;;;;;;;7.18;6.47;;;16.20;65.70;;;;;;5058627;28;20265;-74
2022/11/14 01:58:15;;;;;;;7.25;6.63;;;16.20;65.70;;;;;;5058085;28;20586;-74
2022/11/14 02:00:41;;;;;;;7.82;7.13;;;16.20;65.70;;;;;;5040499;28;20241;-74
2022/11/14 02:03:06;;;;;;;8.07;7.30;;;16.20;65.70;;;;;;5057811;28;20175;-74
2022/11/14 02:05:32;;;;;;;7.55;6.82;;;16.20;65.70;;;;;;5058716;28;20179;-75
2022/11/14 02:07:57;;;;;;;7.40;6.70;;;16.20;65.70;;;;;;5057078;28;20178;-75
2022/11/14 02:10:23;;;;;;;7.93;7.20;;;16.20;65.70;;;;;;5058873;28;20182;-75
2022/11/14 02:12:48;;;;;;;8.40;7.60;;;16.20;65.70;;;;;;5058348;28;20238;-75
2022/11/14 02:15:14;;;;;;;8.27;7.47;;;16.20;65.70;;;;;;5058182;28;20225;-74
2022/11/14 02:17:40;;;;;;;7.95;7.15;;;16.20;65.60;;;;;;5057415;28;20178;-73
2022/11/14 02:20:09;;;;;;;8.60;7.85;;;16.20;65.60;;;;;;5057597;28;20214;-73
2022/11/14 02:22:34;;;;;;;7.95;7.25;;;16.20;65.60;;;;;;5058503;28;20673;-74
2022/11/14 02:25:00;;;;;;;8.40;7.60;;;16.20;65.60;;;;;;5058695;28;20214;-74
2022/11/14 02:27:25;;;;;;;8.00;7.20;;;16.20;65.70;;;;;;5057062;28;20274;-74
2022/11/14 02:29:51;;;;;;;8.65;7.80;;;16.20;65.60;;;;;;5053937;28;20186;-75
2022/11/14 02:32:16;;;;;;;8.75;7.57;;;16.20;65.70;;;;;;5055707;28;20178;-75
2022/11/14 02:34:42;;;;;;;8.63;7.82;;;16.10;65.50;;;;;;5054695;28;20203;-75
2022/11/14 02:37:07;;;;;;;8.45;7.65;;;16.10;65.60;;;;;;5055559;28;20167;-75
2022/11/14 02:39:33;;;;;;;7.57;6.88;;;16.10;65.50;;;;;;5055146;28;20593;-75
2022/11/14 02:41:58;;;;;;;8.75;7.97;;;16.10;65.50;;;;;;5054879;28;20174;-74
2022/11/14 02:44:24;;;;;;;8.45;7.65;;;16.10;65.50;;;;;;5055591;28;20189;-74
2022/11/14 02:46:51;;;;;;;9.27;8.35;;;16.10;65.50;;;;;;5055158;28;20548;-73
2022/11/14 02:49:17;;;;;;;8.70;7.80;;;16.10;65.50;;;;;;5054660;28;20229;-75
2022/11/14 02:51:43;;;;;;;7.63;6.82;;;16.10;65.50;;;;;;5055070;28;20171;-74
2022/11/14 02:54:08;;;;;;;8.25;7.47;;;16.10;65.50;;;;;;5055002;28;20210;-75
2022/11/14 02:56:34;;;;;;;8.02;7.32;;;16.10;66.30;;;;;;5054269;28;20198;-74
2022/11/14 02:58:59;;;;;;;8.65;7.82;;;16.10;65.50;;;;;;5054960;28;20179;-73
2022/11/14 03:01:25;;;;;;;9.20;8.30;;;16.10;65.50;;;;;;5054969;28;20179;-75
2022/11/14 03:03:51;;;;;;;8.40;7.60;;;16.10;65.50;;;;;;5053991;28;20237;-74
2022/11/14 03:06:16;;;;;;;8.73;7.82;;;16.10;65.40;;;;;;5054933;28;20548;-75
2022/11/14 03:08:42;;;;;;;8.85;8.00;;;16.00;65.30;;;;;;5054748;28;20332;-75
2022/11/14 03:11:08;;;;;;;9.02;8.18;;;16.00;65.30;;;;;;5054020;28;20637;-76
2022/11/14 03:13:33;;;;;;;8.05;7.25;;;16.00;65.20;;;;;;5054760;28;20237;-75
2022/11/14 03:16:09;;;;;;;9.07;8.18;;;16.00;65.30;;;;;;5054924;28;20259;-73
2022/11/14 03:18:35;;;;;;;8.45;7.72;;;16.00;65.30;;;;;;5053851;28;20182;-73
2022/11/14 03:21:21;;;;;;;8.63;7.72;;;16.00;65.20;;;;;;5054696;28;20552;-73
2022/11/14 03:23:46;;;;;;;9.02;8.13;;;16.00;65.20;;;;;;5053861;28;20865;-73
2022/11/14 03:26:12;;;;;;;8.70;7.78;;;16.00;65.20;;;;;;5054695;28;20634;-73
2022/11/14 03:28:38;;;;;;;8.48;7.63;;;16.00;65.30;;;;;;5054065;28;20187;-73
2022/11/14 03:31:04;;;;;;;8.90;8.00;;;16.00;65.20;;;;;;5053872;28;20179;-74
2022/11/14 03:33:30;;;;;;;8.63;7.88;;;16.00;65.20;;;;;;5054233;28;20183;-74
2022/11/14 03:35:55;;;;;;;8.95;8.15;;;16.00;65.20;;;;;;5054229;28;20645;-74
2022/11/14 03:38:22;;;;;;;8.73;7.82;;;16.00;65.20;;;;;;5053862;28;20168;-74
2022/11/14 03:40:48;;;;;;;9.20;8.27;;;16.00;65.20;;;;;;5052907;28;20386;-72
2022/11/14 03:43:14;;;;;;;8.98;8.13;;;15.90;65.10;;;;;;5054418;28;20266;-72
2022/11/14 03:45:40;;;;;;;8.80;8.00;;;16.00;65.10;;;;;;5053268;28;20261;-71
2022/11/14 03:48:06;;;;;;;9.80;8.90;;;15.90;65.10;;;;;;5054111;28;20175;-72
2022/11/14 03:50:31;;;;;;;9.50;8.50;;;16.00;65.10;;;;;;5053731;28;20260;-73
2022/11/14 03:52:57;;;;;;;8.63;7.72;;;15.90;65.10;;;;;;5053518;28;20178;-72
2022/11/14 03:55:22;;;;;;;8.43;7.57;;;15.90;65.10;;;;;;5054106;28;20202;-73
2022/11/14 03:57:48;;;;;;;9.55;8.65;;;15.90;65.10;;;;;;5053754;28;20179;-72
2022/11/14 04:00:14;;;;;;;8.77;7.93;;;15.90;65.00;;;;;;5053212;28;20645;-73
2022/11/14 04:02:39;;;;;;;8.40;7.53;;;15.90;65.10;;;;;;5053913;28;20662;-73
2022/11/14 04:05:05;;;;;;;9.13;8.23;;;15.90;65.00;;;;;;5053789;28;20541;-73
2022/11/14 04:07:30;;;;;;;9.77;8.77;;;15.90;65.10;;;;;;5052978;28;20193;-74
2022/11/14 04:09:56;;;;;;;8.55;7.72;;;15.90;65.00;;;;;;5053708;28;20197;-73
2022/11/14 04:12:21;;;;;;;9.15;8.32;;;15.90;65.00;;;;;;5053626;28;20720;-74
2022/11/14 04:14:47;;;;;;;9.20;8.27;;;15.90;65.00;;;;;;5052395;28;20657;-72
2022/11/14 04:17:12;;;;;;;9.32;8.27;;;15.90;65.00;;;;;;5053619;28;20262;-73
2022/11/14 04:19:38;;;;;;;9.27;8.38;;;15.90;65.00;;;;;;5053154;28;20171;-72
2022/11/14 04:22:03;;;;;;;9.27;8.25;;;15.80;64.90;;;;;;5052963;28;20171;-72
2022/11/14 04:24:29;;;;;;;9.30;8.40;;;15.80;64.90;;;;;;5053351;28;20167;-73
2022/11/14 04:26:54;;;;;;;9.88;8.88;;;15.80;64.90;;;;;;5052837;28;20240;-72
2022/11/14 04:29:20;;;;;;;9.30;8.40;;;15.80;64.90;;;;;;5053553;28;20588;-74
2022/11/14 04:31:45;;;;;;;9.18;8.27;;;15.80;64.90;;;;;;5053087;28;20174;-73
2022/11/14 04:34:11;;;;;;;9.02;8.13;;;15.80;64.90;;;;;;5052451;28;20210;-74
2022/11/14 04:36:36;;;;;;;8.70;7.85;;;15.80;64.90;;;;;;5053268;28;20182;-73
2022/11/14 04:39:02;;;;;;;9.38;8.38;;;15.80;64.90;;;;;;5053276;28;20531;-72
2022/11/14 04:41:28;;;;;;;10.25;8.75;;;15.80;64.90;;;;;;5052564;28;20634;-73
2022/11/14 04:43:53;;;;;;;9.13;8.23;;;15.80;64.90;;;;;;5053142;28;20213;-72
2022/11/14 04:46:19;;;;;;;9.57;8.68;;;15.80;64.90;;;;;;5053060;28;20171;-74
2022/11/14 04:48:44;;;;;;;9.55;8.55;;;15.80;64.90;;;;;;5052044;28;20174;-72
2022/11/14 04:51:10;;;;;;;9.57;8.60;;;15.80;64.90;;;;;;5052895;28;20167;-71
2022/11/14 04:53:35;;;;;;;9.68;8.77;;;15.80;64.90;;;;;;5052834;28;20171;-73
2022/11/14 04:56:01;;;;;;;9.05;8.25;;;15.80;64.90;;;;;;5052235;28;20210;-72
2022/11/14 04:58:26;;;;;;;9.57;8.35;;;15.80;64.90;;;;;;5052752;28;20167;-74
2022/11/14 05:00:52;;;;;;;9.52;8.63;;;15.80;64.80;;;;;;5052553;28;20707;-72
2022/11/14 05:03:17;;;;;;;9.52;8.52;;;15.70;64.80;;;;;;5052049;28;20163;-73
2022/11/14 05:05:43;;;;;;;9.40;8.45;;;15.80;64.80;;;;;;5052474;28;20621;-73
2022/11/14 05:08:08;;;;;;;10.02;9.02;;;15.80;64.90;;;;;;5052746;28;20171;-73
2022/11/14 05:10:34;;;;;;;8.95;8.13;;;15.70;64.80;;;;;;5052053;28;20182;-74
2022/11/14 05:12:59;;;;;;;10.00;9.00;;;15.70;64.70;;;;;;5052479;28;20272;-72
2022/11/14 05:15:25;;;;;;;9.10;8.30;;;15.70;64.80;;;;;;5052805;28;20210;-74
2022/11/14 05:17:50;;;;;;;9.38;8.48;;;15.70;64.80;;;;;;5051591;28;20178;-73
2022/11/14 05:20:16;;;;;;;8.73;7.85;;;15.70;64.80;;;;;;5052936;28;20179;-72
2022/11/14 05:22:41;;;;;;;9.13;8.23;;;15.70;64.80;;;;;;5052567;28;20174;-72
2022/11/14 05:25:07;;;;;;;9.23;8.32;;;15.70;64.80;;;;;;5051850;28;20206;-71
2022/11/14 05:27:33;;;;;;;9.10;8.20;;;15.70;64.80;;;;;;5052369;28;20705;-72
2022/11/14 05:29:58;;;;;;;7.97;7.20;;;15.70;64.80;;;;;;5052596;28;20210;-73
2022/11/14 05:32:24;;;;;;;8.00;7.28;;;15.70;64.80;;;;;;5051771;28;20258;-74
2022/11/14 05:34:49;;;;;;;8.90;8.00;;;15.70;64.80;;;;;;5052330;28;20210;-74
2022/11/14 05:37:15;;;;;;;8.93;8.02;;;15.70;64.80;;;;;;5051800;28;20209;-73
2022/11/14 05:39:40;;;;;;;9.25;8.30;;;15.70;64.80;;;;;;5052377;28;20183;-73
2022/11/14 05:42:06;;;;;;;9.82;8.82;;;15.60;64.70;;;;;;5052662;28;20168;-72
2022/11/14 05:44:35;;;;;;;8.93;8.02;;;15.70;64.80;;;;;;5051504;28;20163;-72
2022/11/14 05:47:00;;;;;;;8.52;7.72;;;15.60;64.80;;;;;;5052438;28;20179;-71
2022/11/14 05:49:26;;;;;;;9.30;8.30;;;15.60;64.80;;;;;;5052385;28;20653;-73
2022/11/14 05:51:51;;;;;;;8.48;7.68;;;15.70;64.80;;;;;;5051461;28;20183;-73
2022/11/14 05:54:17;;;;;;;9.23;8.32;;;15.70;64.90;;;;;;5052479;28;20199;-73
2022/11/14 05:56:42;;;;;;;9.43;8.52;;;15.60;64.80;;;;;;5052064;28;20195;-71
2022/11/14 05:59:07;;;;;;;8.70;7.90;;;15.60;64.80;;;;;;5051598;28;20222;-72
2022/11/14 06:01:33;;;;;;;9.57;8.65;;;15.60;64.80;;;;;;5051868;28;20646;-72
2022/11/14 06:03:59;;;;;;;8.85;7.95;;;15.60;64.70;;;;;;5054456;28;20690;-74
2022/11/14 06:06:24;;;;;;;9.35;8.45;;;15.60;64.80;;;;;;5055577;28;20175;-74
2022/11/14 06:08:50;;;;;;;9.75;8.75;;;15.70;64.70;;;;;;5055681;28;20183;-73
2022/11/14 06:11:17;;;;;;;9.40;8.50;;;15.70;64.50;;;;;;5054786;28;20313;-73
2022/11/14 06:13:43;;;;;;;9.13;8.23;;;15.70;64.20;;;;;;5054820;28;20230;-72
2022/11/14 06:16:10;;;;;;;8.77;7.95;;;15.80;64.20;;;;;;5055737;28;20206;-73
2022/11/14 06:18:36;;;;;;;8.52;7.72;;;15.90;64.00;;;;;;5055705;28;20175;-71
2022/11/14 06:21:06;;;;;;;8.50;7.70;;;16.00;63.90;;;;;;5055198;28;20533;-71
2022/11/14 06:23:32;;;;;;;7.68;6.88;;;16.10;63.80;;;;;;5055458;28;20179;-72
2022/11/14 06:26:02;;;;;;;8.77;7.95;;;16.20;63.60;;;;;;5055711;28;20183;-72
2022/11/14 06:28:27;;;;;;;7.72;7.03;;;16.30;63.40;;;;;;5054845;28;20189;-74
2022/11/14 06:31:11;;;;;;;7.78;7.05;;;16.40;63.20;;;;;;5055396;28;20261;-73
2022/11/14 06:33:36;;;;;;;8.20;7.30;;;16.50;63.10;;;;;;5054493;28;20630;-73
2022/11/14 06:36:04;;;;;;;8.05;7.25;;;16.60;62.80;;;;;;5055586;28;20218;-74
2022/11/14 06:38:30;;;;;;;8.23;7.43;;;16.70;62.60;;;;;;5055238;28;20187;-73
2022/11/14 06:41:02;;;;;;;7.95;6.93;;;16.80;62.40;;;;;;5054953;28;20225;-73
2022/11/14 06:43:28;;;;;;;8.23;7.43;;;16.80;62.10;;;;;;5055608;28;20179;-74
2022/11/14 06:45:54;;;;;;;8.18;7.38;;;16.80;62.00;;;;;;5055364;28;20175;-71
2022/11/14 06:48:19;;;;;;;7.72;6.97;;;16.80;62.00;;;;;;5054749;28;20278;-74
2022/11/14 06:50:51;;;;;;;6.63;6.05;;;16.70;62.00;;;;;;5054756;28;20670;-72
2022/11/14 06:53:16;;;;;;;7.45;6.72;;;16.70;62.20;;;;;;5055141;28;20638;-73
2022/11/14 06:55:42;;;;;;;7.47;6.78;;;16.70;62.10;;;;;;5053990;28;20199;-73
2022/11/14 06:58:07;;;;;;;7.55;6.88;;;16.70;62.10;;;;;;5055250;28;20175;-73
2022/11/14 07:00:33;;;;;;;8.00;7.30;;;16.80;62.00;;;;;;5054957;28;20172;-73
2022/11/14 07:02:58;;;;;;;7.43;6.60;;;16.80;61.90;;;;;;5054560;28;20181;-73
2022/11/14 07:05:24;;;;;;;7.97;7.18;;;16.80;61.90;;;;;;5054997;28;20529;-73
2022/11/14 07:07:49;;;;;;;7.85;7.05;;;16.80;62.00;;;;;;5054662;28;20212;-74
2022/11/14 07:10:15;;;;;;;7.63;6.80;;;16.80;62.00;;;;;;5054115;28;20236;-73
2022/11/14 07:12:40;;;;;;;7.03;6.32;;;16.80;61.90;;;;;;5054300;28;20302;-72
2022/11/14 07:15:07;;;;;;;7.10;6.43;;;16.90;61.90;;;;;;5054512;28;20218;-72
2022/11/14 07:17:35;;;;;;;7.63;6.82;;;16.90;61.60;;;;;;5053612;28;20167;-72
2022/11/14 07:20:00;;;;;;;7.13;6.53;;;17.00;61.50;;;;;;5054841;28;20256;-72
2022/11/14 07:22:26;;;;;;;7.18;6.47;;;17.10;61.40;;;;;;5054842;28;20179;-72
2022/11/14 07:24:51;;;;;;;6.40;5.80;;;17.20;61.20;;;;;;5053569;28;20167;-72
2022/11/14 07:27:17;;;;;;;7.15;6.47;;;17.20;61.00;;;;;;5054509;28;20171;-73
2022/11/14 07:29:42;;;;;;;6.57;5.97;;;17.30;60.80;;;;;;5053694;28;20642;-73
2022/11/14 07:32:08;;;;;;;7.40;6.70;;;17.30;60.70;;;;;;5054482;28;20194;-74
2022/11/14 07:34:33;;;;;;;6.80;6.10;;;17.40;60.50;;;;;;5054107;28;20708;-74
2022/11/14 07:36:59;;;;;;;7.18;6.55;;;17.50;60.50;;;;;;5053553;28;20755;-73
2022/11/14 07:39:24;;;;;;;6.65;6.05;;;17.60;60.20;;;;;;5054463;28;20623;-73
2022/11/14 07:41:50;;;;;;;6.75;6.07;;;17.80;59.70;;;;;;5053924;28;20183;-72
2022/11/14 07:44:15;;;;;;;6.82;6.22;;;18.00;59.30;;;;;;5053405;28;20178;-74
2022/11/14 07:46:41;;;;;;;6.47;5.88;;;18.10;59.00;;;;;;5054144;28;20171;-72
2022/11/14 07:49:06;;;;;;;6.97;6.28;;;18.20;58.80;;;;;;5054197;28;20179;-72
2022/11/14 07:51:32;;;;;;;6.78;6.13;;;18.30;58.60;;;;;;5053302;28;20170;-73
2022/11/14 07:53:57;;;;;;;5.95;5.45;;;18.40;58.50;;;;;;5054146;28;20179;-72
2022/11/14 07:56:24;;;;;;;6.68;6.07;;;18.40;58.20;;;;;;5054221;28;20182;-74
2022/11/14 07:58:50;;;;;;;6.18;5.57;;;18.40;58.20;;;;;;5053173;28;20171;-72
2022/11/14 08:01:15;;;;;;;6.45;5.85;;;18.50;58.20;;;;;;5054029;28;20171;-73
2022/11/14 08:03:41;;;;;;;6.55;5.95;;;18.50;58.20;;;;;;5053664;28;20171;-74
2022/11/14 08:06:08;;;;;;;6.20;5.60;;;18.50;58.10;;;;;;5053226;28;20254;-74
2022/11/14 08:08:34;;;;;;;5.97;5.47;;;18.60;58.10;;;;;;5053657;28;20175;-74
2022/11/14 08:10:59;;;;;;;6.60;6.00;;;18.60;58.10;;;;;;5053966;28;20545;-73
2022/11/14 08:13:25;;;;;;;6.40;5.80;;;18.50;58.00;;;;;;5052906;28;20593;-73
2022/11/14 08:15:51;;;;;;;6.70;6.10;;;18.50;58.10;;;;;;5053192;28;20578;-74
2022/11/14 08:18:16;;;;;;;6.45;5.85;;;18.40;58.20;;;;;;5053696;28;20188;-73
2022/11/14 08:20:42;;;;;;;6.65;6.05;;;18.30;58.40;;;;;;5052399;28;20175;-73
2022/11/14 08:23:08;;;;;;;6.60;6.00;;;18.20;58.50;;;;;;5053573;28;20179;-73
2022/11/14 08:25:34;;;;;;;8.35;6.22;;;18.10;58.70;;;;;;5052707;28;20171;-72
2022/11/14 08:27:59;;;;;;;6.32;5.72;;;18.00;58.70;;;;;;5052554;28;20172;-73
2022/11/14 08:30:25;;;;;;;7.25;6.20;;;18.00;58.90;;;;;;5053658;28;20182;-74
2022/11/14 08:32:50;;;;;;;7.25;6.55;;;18.00;59.10;;;;;;5053114;28;20171;-74
2022/11/14 08:35:16;;;;;;;6.93;6.22;;;17.90;59.20;;;;;;5052600;28;20257;-74
2022/11/14 08:37:41;;;;;;;7.50;6.80;;;18.00;59.20;;;;;;5052995;28;20212;-74
2022/11/14 08:40:07;;;;;;;8.30;6.75;;;18.00;59.10;;;;;;5052695;28;20538;-74
2022/11/14 08:42:33;;;;;;;7.63;6.93;;;18.00;59.10;;;;;;5053123;28;20171;-74
2022/11/14 08:44:58;;;;;;;8.75;7.22;;;17.90;58.80;;;;;;5053442;28;20179;-74
2022/11/14 08:47:24;;;;;;;8.02;7.22;;;17.90;58.50;;;;;;5052458;28;20174;-74
2022/11/14 08:49:49;;;;;;;11.18;7.55;;;17.90;58.50;;;;;;5052897;28;20178;-74
2022/11/14 08:52:15;;;;;;;7.97;7.18;;;17.90;58.20;;;;;;5053096;28;20175;-73
2022/11/14 08:54:40;;;;;;;8.80;7.88;;;17.90;58.20;;;;;;5051860;28;20222;-73
2022/11/14 08:57:06;;;;;;;8.60;7.18;;;18.00;58.20;;;;;;5053131;28;20179;-74
2022/11/14 08:59:31;;;;;;;7.47;6.68;;;18.00;58.10;;;;;;5052790;28;20175;-73
2022/11/14 09:01:57;;;;;;;8.25;7.32;;;18.00;58.10;;;;;;5052691;28;20207;-74
2022/11/14 09:04:22;;;;;;;8.30;7.40;;;18.00;58.20;;;;;;5053042;28;20248;-73
2022/11/14 09:06:48;;;;;;;8.63;6.75;;;18.00;58.20;;;;;;5052573;28;20295;-74
2022/11/14 09:09:14;;;;;;;8.32;7.05;;;18.00;58.30;;;;;;5052001;28;20175;-74
2022/11/14 09:11:39;;;;;;;8.15;7.30;;;17.90;58.40;;;;;;5052443;28;20697;-74
2022/11/14 09:14:05;;;;;;;7.43;6.72;;;18.00;58.50;;;;;;5052438;28;20238;-74
2022/11/14 09:16:32;;;;;;;7.28;6.53;;;18.00;58.50;;;;;;5051837;28;20278;-74
2022/11/14 09:18:57;;;;;;;8.90;6.90;;;18.10;58.40;;;;;;5052699;28;20171;-74
2022/11/14 09:21:23;;;;;;;8.98;7.40;;;18.10;58.30;;;;;;5052837;28;20664;-73
2022/11/14 09:23:48;;;;;;;7.95;7.15;;;18.10;58.30;;;;;;5051697;28;20179;-73
2022/11/14 09:26:14;;;;;;;8.70;6.55;;;18.10;58.40;;;;;;5052830;28;20175;-73
2022/11/14 09:28:40;;;;;;;7.72;6.93;;;18.00;58.40;;;;;;5052547;28;20537;-74
2022/11/14 09:31:07;;;;;;;9.10;6.88;;;18.00;58.50;;;;;;5051967;28;20163;-74
2022/11/14 09:33:33;;;;;;;7.57;6.78;;;18.00;58.50;;;;;;5050980;28;20289;-73
2022/11/14 09:36:00;;;;;;;7.20;6.50;;;18.10;58.60;;;;;;5052470;28;20256;-74
2022/11/14 09:38:25;;;;;;;8.38;7.22;;;18.10;58.50;;;;;;5054648;28;20210;-74
2022/11/14 09:41:07;;;;;;;8.60;7.10;;;18.10;58.40;;;;;;5056388;28;20199;-74
2022/11/14 09:43:43;;;;;;;7.90;7.10;;;18.10;58.50;;;;;;5054391;28;20178;-74
2022/11/14 09:46:26;;;;;;;6.57;5.97;;;18.00;58.60;;;;;;5055426;28;20179;-74
2022/11/14 09:48:51;;;;;;;8.10;6.93;;;17.90;58.70;;;;;;5054902;28;20614;-74
2022/11/14 09:51:42;;;;;;;6.95;6.28;;;17.90;58.70;;;;;;5055909;28;20183;-74
2022/11/14 09:54:18;;;;;;;7.20;6.47;;;17.90;58.70;;;;;;5040477;28;20179;-74
2022/11/14 09:56:43;;;;;;;6.70;5.78;;;17.90;58.70;;;;;;5054841;28;20209;-74
2022/11/14 09:59:10;;;;;;;7.45;5.93;;;17.90;58.70;;;;;;5055450;28;20724;-73
2022/11/14 10:01:42;;;;;;;7.03;6.32;;;17.90;58.70;;;;;;5054691;28;20614;-73
2022/11/14 10:04:48;;;;;;;8.65;6.70;;;17.90;58.70;;;;;;5056096;28;20556;-74
2022/11/14 10:07:22;;;;;;;7.03;6.32;;;17.90;58.60;;;;;;5039433;28;20633;-72
2022/11/14 10:09:48;;;;;;;8.18;7.20;;;17.80;58.60;;;;;;5055694;28;20601;-73
2022/11/14 10:12:22;;;;;;;7.25;6.63;;;17.70;58.60;;;;;;5055172;28;20226;-73
2022/11/14 10:15:06;;;;;;;8.18;6.43;;;17.70;58.80;;;;;;5038763;28;20222;-73
2022/11/14 10:17:53;;;;;;;7.57;6.88;;;17.80;58.80;;;;;;5054599;28;20293;-73
2022/11/14 10:20:20;;;;;;;7.38;6.70;;;17.80;58.80;;;;;;5054095;28;20240;-73
2022/11/14 10:23:27;;;;;;;7.13;6.43;;;17.80;58.80;;;;;;5055467;28;20188;-73
2022/11/14 10:26:23;;;;;;;7.28;6.57;;;17.80;58.70;;;;;;5042848;28;20179;-73
2022/11/14 10:29:10;;;;;;;7.93;6.72;;;17.70;58.80;;;;;;5054423;28;20388;-69
2022/11/14 10:32:09;;;;;;;7.38;6.63;;;17.70;58.90;;;;;;5054026;28;20179;-73
2022/11/14 10:34:46;;;;;;;7.45;6.72;;;17.70;58.90;;;;;;5022344;28;20215;-73
2022/11/14 10:37:17;;;;;;;7.68;6.97;;;17.70;58.90;;;;;;5055676;28;20194;-73
2022/11/14 10:39:45;;;;;;;9.82;6.50;;;17.70;58.90;;;;;;5054648;28;20232;-73
2022/11/14 10:42:26;;;;;;;7.85;6.68;;;17.80;58.70;;;;;;5054384;28;20211;-73
2022/11/14 10:45:12;;;;;;;7.70;7.00;;;17.80;58.60;;;;;;5055019;28;20265;-73
2022/11/14 10:47:47;;;;;;;7.13;6.05;;;17.80;58.70;;;;;;5050409;28;20552;-74
2022/11/14 10:50:14;;;;;;;6.97;6.28;;;17.80;58.70;;;;;;5053615;28;20193;-73
2022/11/14 10:52:40;;;;;;;7.18;6.53;;;17.70;58.80;;;;;;5055151;28;20566;-74
2022/11/14 10:55:13;;;;;;;8.18;6.40;;;17.70;58.80;;;;;;5054550;28;20191;-74
2022/11/14 10:57:39;;;;;;;6.40;5.78;;;17.80;58.90;;;;;;5054888;28;20210;-73
2022/11/14 11:00:14;;;;;;;9.98;6.35;;;17.80;58.80;;;;;;5053827;28;20645;-74
2022/11/14 11:02:51;;;;;;;6.97;5.72;;;17.90;58.80;;;;;;5054285;28;20221;-74
2022/11/14 11:05:17;;;;;;;6.57;5.90;;;17.80;58.70;;;;;;5055207;28;20175;-73
2022/11/14 11:13:12;;;;;;;6.80;6.15;;;17.80;58.80;;;;;;5053762;28;20234;-73
2022/11/14 11:15:39;;;;;;;7.47;6.78;;;17.80;58.80;;;;;;5053523;28;20211;-74
2022/11/14 11:18:27;;;;;;;6.70;6.10;;;17.80;58.80;;;;;;5054779;28;20231;-73
2022/11/14 11:21:13;;;;;;;8.57;6.80;;;17.80;58.80;;;;;;5053904;28;20195;-65
2022/11/14 11:23:59;;;;;;;8.32;6.00;;;17.80;58.70;;;;;;5053745;28;20175;-73
2022/11/14 11:26:31;;;;;;;7.03;6.40;;;17.80;58.70;;;;;;5054317;28;20175;-73
2022/11/14 11:29:04;;;;;;;7.97;7.18;;;17.80;58.80;;;;;;5053765;28;20218;-73
2022/11/14 11:31:54;;;;;;;7.35;6.30;;;17.70;58.90;;;;;;5054052;28;20547;-73
2022/11/14 11:34:25;;;;;;;7.10;6.25;;;17.70;58.90;;;;;;5054550;28;20175;-73
2022/11/14 11:37:13;;;;;;;8.82;7.95;;;17.60;59.00;;;;;;5052196;28;20602;-73
2022/11/14 11:39:48;;;;;;;9.15;8.23;;;17.60;58.70;;;;;;5053671;28;20187;-73
2022/11/14 11:42:23;;;;;;;10.88;9.32;;;17.60;58.40;;;;;;5053086;28;20178;-73
2022/11/14 11:44:49;;;;;;;8.70;7.68;;;17.60;58.00;;;;;;5052188;28;20348;-72
2022/11/14 11:47:16;;;;;;;9.63;7.80;;;17.60;57.90;;;;;;5053118;28;20175;-73
2022/11/14 11:49:48;;;;;;;7.70;7.00;;;17.60;58.10;;;;;;5052582;28;20224;-72
2022/11/14 11:52:26;;;;;;;8.18;7.35;;;17.60;58.20;;;;;;5053732;28;20225;-72
2022/11/14 11:55:07;;;;;;;9.07;8.15;;;17.50;58.40;;;;;;5052500;28;20699;-72
2022/11/14 11:58:03;;;;;;;10.93;8.52;;;17.50;58.40;;;;;;5054677;28;20175;-73
2022/11/14 12:00:29;;;;;;;8.65;7.75;;;17.50;58.50;;;;;;5042885;28;20557;-69
2022/11/14 12:02:54;;;;;;;10.57;8.18;;;17.50;58.50;;;;;;5053832;28;20174;-72
2022/11/14 12:05:52;;;;;;;10.15;7.32;;;17.60;58.80;;;;;;5053287;28;20175;-70
2022/11/14 12:08:39;;;;;;;8.32;7.32;;;17.60;58.80;;;;;;5048863;28;20214;-70
2022/11/14 12:11:05;;;;;;;10.93;7.57;;;17.50;58.80;;;;;;5053249;28;20179;-73
2022/11/14 12:13:46;;;;;;;9.02;8.13;;;17.60;58.80;;;;;;5052215;28;20233;-72
2022/11/14 12:16:46;;;;;;;9.25;7.70;;;17.50;58.90;;;;;;5052454;28;20288;-74
2022/11/14 12:19:33;;;;;;;8.15;7.20;;;17.50;58.80;;;;;;5053075;28;20181;-74
2022/11/14 12:22:23;;;;;;;9.10;8.02;;;17.40;58.80;;;;;;5053589;28;20185;-72
2022/11/14 12:24:57;;;;;;;8.85;7.53;;;17.50;58.90;;;;;;5053120;28;20186;-73
2022/11/14 12:27:48;;;;;;;9.57;7.82;;;17.50;59.00;;;;;;5052676;28;20579;-73
2022/11/14 12:30:20;;;;;;;8.85;7.95;;;17.50;59.00;;;;;;5052265;28;20602;-72
2022/11/14 12:33:16;;;;;;;9.40;7.63;;;17.50;59.00;;;;;;5052347;28;20262;-73
2022/11/14 12:35:50;;;;;;;9.43;7.95;;;17.50;59.00;;;;;;5052179;28;20215;-73
2022/11/14 12:38:19;;;;;;;9.35;8.07;;;17.50;59.20;;;;;;5053377;28;20170;-74
2022/11/14 12:40:56;;;;;;;9.90;8.05;;;17.40;59.20;;;;;;5051161;28;20250;-74
2022/11/14 12:43:41;;;;;;;11.23;7.70;;;17.40;59.20;;;;;;5053271;28;20237;-73
2022/11/14 12:46:08;;;;;;;8.77;7.70;;;17.40;59.40;;;;;;5051700;28;20241;-72
2022/11/14 12:48:35;;;;;;;8.27;7.47;;;17.50;59.40;;;;;;5051758;28;20305;-73
2022/11/14 12:51:02;;;;;;;8.77;7.88;;;17.50;59.30;;;;;;5053167;28;20175;-72
2022/11/14 12:53:36;;;;;;;8.15;7.40;;;17.50;59.30;;;;;;5051009;28;20179;-73
2022/11/14 12:56:05;;;;;;;9.38;8.02;;;17.40;59.30;;;;;;5052908;28;20205;-73
2022/11/14 12:58:35;;;;;;;8.57;7.68;;;17.40;59.30;;;;;;5052652;28;20178;-73